PST,Max TemperatureF,Mean TemperatureF,Min TemperatureF,Max Dew PointF,MeanDew PointF,Min DewpointF,Max Humidity, Mean Humidity, Min Humidity, Max Sea Level PressureIn, Mean Sea Level PressureIn, Min Sea Level PressureIn, Max VisibilityMiles, Mean VisibilityMiles, Min VisibilityMiles, Max Wind SpeedMPH, Mean Wind SpeedMPH, Max Gust SpeedMPH,PrecipitationIn, CloudCover, Events, WindDirDegrees
2012-12-1,44,42,39,45,41,39,100,99,93,30.06,30.00,29.83,5,1,0,26,18,43,2.06,8,Fog-Rain,170
2012-12-2,46,40,34,46,39,31,100,98,86,30.11,29.90,29.60,10,2,0,38,20,72,3.31,6,Fog-Rain,188
2012-12-3,46,42,37,43,40,22,100,90,37,30.22,30.17,30.07,10,8,0,14,6,16,0.01,5,Fog,153
2012-12-4,46,40,35,41,29,9,96,71,23,30.30,30.22,30.14,10,8,3,12,6,20,0.98,8,Rain,133
2012-12-5,46,40,35,46,43,35,100,97,93,30.24,30.18,30.09,5,1,0,16,6,26,1.30,8,Fog-Rain,157
2012-12-6,48,44,41,45,40,16,100,87,31,30.17,30.09,30.01,10,8,0,7,1,,0.00,4,Fog,5
2012-12-7,52,48,44,27,12,-9,43,26,11,30.09,30.05,30.02,10,10,10,8,4,,0.00,0,,20
2012-12-8,52,48,44,31,17,-15,56,34,7,30.03,30.00,29.96,10,10,10,6,3,,0.00,0,,12
2012-12-9,54,48,43,29,26,21,50,41,35,30.17,30.10,30.03,10,10,10,16,9,26,0.00,0,,53
2012-12-10,61,54,46,39,21,10,55,33,14,30.20,30.14,30.04,10,10,10,7,4,,0.00,0,,47
2012-12-11,51,40,30,34,26,12,100,63,22,30.02,29.86,29.73,10,7,0,24,8,32,0.11,3,Fog-Snow,175
2012-12-12,32,29,26,32,28,25,100,97,92,29.87,29.78,29.72,10,3,0,15,9,22,0.37,7,Fog-Rain-Snow,177
2012-12-13,35,29,23,25,21,18,96,77,54,29.89,29.85,29.79,10,10,10,6,2,,0.00,3,,36
2012-12-14,28,26,24,27,24,18,100,86,69,29.99,29.83,29.72,10,6,0,8,2,,0.14,6,Fog-Snow,273
2012-12-15,28,24,21,27,23,17,100,86,69,30.07,30.00,29.94,10,6,0,9,4,,0.06,6,Fog-Snow,143
2012-12-16,36,32,28,36,29,25,100,95,80,30.13,30.03,29.98,10,2,0,18,7,29,0.78,8,Fog-Rain-Snow,151
2012-12-17,37,34,30,38,34,30,100,98,93,29.98,29.94,29.90,10,2,0,22,13,39,1.28,8,Fog-Rain-Snow,194
2012-12-18,30,24,19,30,22,7,100,81,57,30.13,29.93,29.85,10,8,0,10,5,,0.09,3,Fog-Snow,330
2012-12-19,33,27,21,17,4,-6,66,38,22,30.27,30.22,30.12,10,10,10,9,5,,0.00,0,,135
2012-12-20,37,32,27,19,8,2,72,35,27,30.21,30.10,29.98,10,10,10,22,13,33,0.00,0,,160
2012-12-21,37,32,28,36,27,4,100,84,25,29.97,29.90,29.84,10,3,0,29,15,40,0.67,8,Fog-Rain-Snow,158
2012-12-22,36,32,28,36,31,28,100,98,93,30.07,29.90,29.75,7,1,0,30,18,47,1.03,8,Fog-Rain-Snow,193
2012-12-23,34,32,30,34,32,29,100,100,96,30.07,29.92,29.82,1,0,0,29,18,44,0.98,,Fog-Rain-Snow,170
2012-12-24,34,30,27,34,26,18,100,84,52,30.16,30.07,29.91,10,7,0,12,7,21,0.16,2,Fog-Snow,237
2012-12-25,33,30,28,32,27,12,100,89,42,30.13,29.91,29.72,10,3,0,16,7,31,1.11,7,Fog-Snow,148
2012-12-26,30,28,26,30,27,24,100,96,92,30.04,29.89,29.73,10,2,0,17,7,21,0.56,7,Fog-Snow,188
2012-12-27,35,30,25,27,21,16,92,76,63,30.17,30.09,30.03,10,10,10,7,3,,0.00,1,,52
2012-12-28,30,28,25,23,19,14,78,70,56,30.18,30.12,30.06,10,10,10,8,3,,0.00,5,,139
2012-12-29,34,31,28,25,23,19,85,74,64,30.06,30.01,29.94,10,10,9,6,2,,0.00,7,,224
2012-12-30,30,26,23,25,20,11,93,74,57,30.15,30.02,29.94,10,8,2,15,4,34,0.01,3,Snow,33
2012-12-31,39,30,21,24,13,1,82,52,22,30.24,30.21,30.16,10,10,10,12,5,17,0.00,1,,33